sensor_id;sensor_type;location;lat;lon;timestamp;pressure;altitude;pressure_sealevel;temperature;humidity
75036;BME280;64247;51.540;5.854;2023-02-15T00:01:37;102589.91;;;0.33;100.00
75036;BME280;64247;51.540;5.854;2023-02-15T00:03:39;102597.06;;;0.32;100.00
75036;BME280;64247;51.540;5.854;2023-02-15T00:05:40;102594.31;;;0.39;100.00
75036;BME280;64247;51.540;5.854;2023-02-15T00:07:40;102596.03;;;0.33;100.00
75036;BME280;64247;51.540;5.854;2023-02-15T00:09:41;102591.84;;;0.25;100.00
75036;BME280;64247;51.540;5.854;2023-02-15T00:11:42;102592.06;;;0.24;100.00
75036;BME280;64247;51.540;5.854;2023-02-15T00:13:45;102587.19;;;0.21;100.00
75036;BME280;64247;51.540;5.854;2023-02-15T00:15:46;102587.63;;;0.18;100.00
75036;BME280;64247;51.540;5.854;2023-02-15T00:17:46;102593.22;;;0.16;100.00
75036;BME280;64247;51.540;5.854;2023-02-15T00:19:47;102584.25;;;0.10;100.00
75036;BME280;64247;51.540;5.854;2023-02-15T00:21:48;102584.78;;;0.01;100.00
75036;BME280;64247;51.540;5.854;2023-02-15T00:23:49;102573.81;;;-0.10;100.00
75036;BME280;64247;51.540;5.854;2023-02-15T00:25:50;102581.34;;;-0.19;100.00
75036;BME280;64247;51.540;5.854;2023-02-15T00:27:51;102576.06;;;-0.25;100.00
75036;BME280;64247;51.540;5.854;2023-02-15T00:29:52;102582.06;;;-0.30;100.00
75036;BME280;64247;51.540;5.854;2023-02-15T00:31:52;102579.88;;;-0.33;100.00
75036;BME280;64247;51.540;5.854;2023-02-15T00:33:53;102577.66;;;-0.36;100.00
75036;BME280;64247;51.540;5.854;2023-02-15T00:35:58;102579.94;;;-0.40;100.00
75036;BME280;64247;51.540;5.854;2023-02-15T00:37:59;102576.41;;;-0.52;100.00
75036;BME280;64247;51.540;5.854;2023-02-15T00:40:00;102576.63;;;-0.72;100.00
75036;BME280;64247;51.540;5.854;2023-02-15T00:42:01;102582.09;;;-0.86;100.00
75036;BME280;64247;51.540;5.854;2023-02-15T00:44:02;102568.22;;;-0.94;100.00
75036;BME280;64247;51.540;5.854;2023-02-15T00:46:05;102570.50;;;-0.98;100.00
75036;BME280;64247;51.540;5.854;2023-02-15T00:48:06;102556.53;;;-0.93;100.00
75036;BME280;64247;51.540;5.854;2023-02-15T00:50:07;102559.28;;;-0.82;100.00
75036;BME280;64247;51.540;5.854;2023-02-15T00:52:08;102558.31;;;-0.69;100.00
75036;BME280;64247;51.540;5.854;2023-02-15T00:54:09;102556.09;;;-0.53;100.00
75036;BME280;64247;51.540;5.854;2023-02-15T00:56:10;102553.56;;;-0.48;100.00
75036;BME280;64247;51.540;5.854;2023-02-15T00:58:12;102551.50;;;-0.46;100.00
75036;BME280;64247;51.540;5.854;2023-02-15T01:00:14;102542.09;;;-0.49;100.00
75036;BME280;64247;51.540;5.854;2023-02-15T01:02:15;102547.31;;;-0.42;100.00
75036;BME280;64247;51.540;5.854;2023-02-15T01:04:16;102548.75;;;-0.39;100.00
75036;BME280;64247;51.540;5.854;2023-02-15T01:06:17;102556.41;;;-0.43;100.00
75036;BME280;64247;51.540;5.854;2023-02-15T01:08:18;102547.78;;;-0.45;100.00
75036;BME280;64247;51.540;5.854;2023-02-15T01:10:19;102554.28;;;-0.41;100.00
75036;BME280;64247;51.540;5.854;2023-02-15T01:12:20;102556.75;;;-0.39;100.00
75036;BME280;64247;51.540;5.854;2023-02-15T01:14:21;102554.09;;;-0.39;100.00
75036;BME280;64247;51.540;5.854;2023-02-15T01:16:24;102547.91;;;-0.40;100.00
75036;BME280;64247;51.540;5.854;2023-02-15T01:18:26;102543.63;;;-0.41;100.00
75036;BME280;64247;51.540;5.854;2023-02-15T01:20:27;102541.06;;;-0.47;100.00
75036;BME280;64247;51.540;5.854;2023-02-15T01:22:29;102549.84;;;-0.47;100.00
75036;BME280;64247;51.540;5.854;2023-02-15T01:24:30;102535.13;;;-0.50;100.00
75036;BME280;64247;51.540;5.854;2023-02-15T01:26:31;102541.13;;;-0.54;100.00
75036;BME280;64247;51.540;5.854;2023-02-15T01:28:32;102529.06;;;-0.57;100.00
75036;BME280;64247;51.540;5.854;2023-02-15T01:30:35;102531.72;;;-0.57;100.00
75036;BME280;64247;51.540;5.854;2023-02-15T01:32:36;102530.53;;;-0.61;100.00
75036;BME280;64247;51.540;5.854;2023-02-15T01:34:36;102526.31;;;-0.69;100.00
75036;BME280;64247;51.540;5.854;2023-02-15T01:36:37;102520.25;;;-0.76;100.00
75036;BME280;64247;51.540;5.854;2023-02-15T01:38:38;102522.47;;;-0.73;100.00
75036;BME280;64247;51.540;5.854;2023-02-15T01:40:42;102521.41;;;-0.72;100.00
75036;BME280;64247;51.540;5.854;2023-02-15T01:42:53;102522.16;;;-0.65;100.00
75036;BME280;64247;51.540;5.854;2023-02-15T01:47:49;102516.72;;;-0.39;100.00
75036;BME280;64247;51.540;5.854;2023-02-15T01:50:36;102508.53;;;-0.26;100.00
75036;BME280;64247;51.540;5.854;2023-02-15T01:52:48;102501.19;;;-0.12;100.00
75036;BME280;64247;51.540;5.854;2023-02-15T01:55:02;102512.56;;;-0.05;100.00
75036;BME280;64247;51.540;5.854;2023-02-15T01:57:23;102512.06;;;-0.13;100.00
75036;BME280;64247;51.540;5.854;2023-02-15T01:59:28;102508.06;;;-0.23;100.00
75036;BME280;64247;51.540;5.854;2023-02-15T02:01:30;102515.22;;;-0.35;100.00
75036;BME280;64247;51.540;5.854;2023-02-15T02:06:09;102516.81;;;-0.46;100.00
75036;BME280;64247;51.540;5.854;2023-02-15T02:08:14;102511.59;;;-0.41;100.00
75036;BME280;64247;51.540;5.854;2023-02-15T02:10:17;102502.97;;;-0.24;100.00
75036;BME280;64247;51.540;5.854;2023-02-15T02:12:21;102500.47;;;-0.07;100.00
75036;BME280;64247;51.540;5.854;2023-02-15T02:14:24;102503.41;;;0.03;100.00
75036;BME280;64247;51.540;5.854;2023-02-15T02:34:50;102477.38;;;-0.13;100.00
75036;BME280;64247;51.540;5.854;2023-02-15T02:41:23;102475.66;;;-0.38;100.00
75036;BME280;64247;51.540;5.854;2023-02-15T02:44:19;102473.31;;;-0.46;100.00
75036;BME280;64247;51.540;5.854;2023-02-15T02:49:36;102470.13;;;-0.55;100.00
75036;BME280;64247;51.540;5.854;2023-02-15T02:51:39;102470.25;;;-0.62;100.00
75036;BME280;64247;51.540;5.854;2023-02-15T02:53:39;102480.97;;;-0.69;100.00
75036;BME280;64247;51.540;5.854;2023-02-15T02:55:46;102472.63;;;-0.72;100.00
75036;BME280;64247;51.540;5.854;2023-02-15T02:57:54;102466.91;;;-0.76;100.00
75036;BME280;64247;51.540;5.854;2023-02-15T03:00:05;102469.94;;;-0.72;100.00
75036;BME280;64247;51.540;5.854;2023-02-15T03:02:13;102469.88;;;-0.66;100.00
75036;BME280;64247;51.540;5.854;2023-02-15T03:04:28;102466.19;;;-0.53;100.00
75036;BME280;64247;51.540;5.854;2023-02-15T03:06:57;102461.94;;;-0.42;100.00
75036;BME280;64247;51.540;5.854;2023-02-15T03:09:12;102456.16;;;-0.39;100.00
75036;BME280;64247;51.540;5.854;2023-02-15T03:11:18;102451.28;;;-0.42;100.00
75036;BME280;64247;51.540;5.854;2023-02-15T03:13:19;102450.13;;;-0.46;100.00
75036;BME280;64247;51.540;5.854;2023-02-15T03:15:27;102445.50;;;-0.39;100.00
75036;BME280;64247;51.540;5.854;2023-02-15T03:17:57;102447.72;;;-0.36;100.00
75036;BME280;64247;51.540;5.854;2023-02-15T03:20:07;102441.00;;;-0.26;100.00
75036;BME280;64247;51.540;5.854;2023-02-15T03:22:18;102441.00;;;-0.26;100.00
75036;BME280;64247;51.540;5.854;2023-02-15T03:24:34;102438.25;;;-0.20;100.00
75036;BME280;64247;51.540;5.854;2023-02-15T03:26:39;102447.06;;;-0.19;100.00
75036;BME280;64247;51.540;5.854;2023-02-15T03:28:47;102439.53;;;-0.10;100.00
75036;BME280;64247;51.540;5.854;2023-02-15T03:30:53;102440.59;;;-0.11;100.00
75036;BME280;64247;51.540;5.854;2023-02-15T03:32:59;102436.03;;;-0.11;100.00
75036;BME280;64247;51.540;5.854;2023-02-15T03:35:03;102446.59;;;-0.16;100.00
75036;BME280;64247;51.540;5.854;2023-02-15T03:43:17;102434.41;;;-0.24;100.00
75036;BME280;64247;51.540;5.854;2023-02-15T03:45:40;102436.16;;;-0.18;100.00
75036;BME280;64247;51.540;5.854;2023-02-15T03:47:56;102436.75;;;-0.15;100.00
75036;BME280;64247;51.540;5.854;2023-02-15T03:50:20;102431.19;;;-0.14;100.00
75036;BME280;64247;51.540;5.854;2023-02-15T03:52:46;102426.66;;;-0.13;100.00
75036;BME280;64247;51.540;5.854;2023-02-15T03:54:47;102423.19;;;-0.14;100.00
75036;BME280;64247;51.540;5.854;2023-02-15T03:56:50;102416.91;;;-0.08;100.00
75036;BME280;64247;51.540;5.854;2023-02-15T03:59:11;102415.41;;;-0.04;100.00
75036;BME280;64247;51.540;5.854;2023-02-15T04:01:58;102413.91;;;0.01;100.00
75036;BME280;64247;51.540;5.854;2023-02-15T04:04:35;102416.69;;;0.06;100.00
75036;BME280;64247;51.540;5.854;2023-02-15T04:06:38;102421.81;;;0.07;100.00
75036;BME280;64247;51.540;5.854;2023-02-15T04:08:38;102410.06;;;0.08;100.00
75036;BME280;64247;51.540;5.854;2023-02-15T04:10:58;102414.84;;;0.06;100.00
75036;BME280;64247;51.540;5.854;2023-02-15T04:13:00;102411.34;;;0.06;100.00
75036;BME280;64247;51.540;5.854;2023-02-15T04:15:01;102407.66;;;0.07;100.00
75036;BME280;64247;51.540;5.854;2023-02-15T04:17:21;102402.06;;;0.08;100.00
75036;BME280;64247;51.540;5.854;2023-02-15T04:19:21;102399.63;;;0.07;100.00
75036;BME280;64247;51.540;5.854;2023-02-15T04:21:41;102406.38;;;0.09;100.00
75036;BME280;64247;51.540;5.854;2023-02-15T04:24:00;102406.72;;;0.13;100.00
75036;BME280;64247;51.540;5.854;2023-02-15T04:26:19;102404.63;;;0.15;100.00
75036;BME280;64247;51.540;5.854;2023-02-15T04:28:20;102399.75;;;0.12;100.00
75036;BME280;64247;51.540;5.854;2023-02-15T04:30:24;102407.41;;;0.08;100.00
75036;BME280;64247;51.540;5.854;2023-02-15T04:32:26;102412.75;;;0.08;100.00
75036;BME280;64247;51.540;5.854;2023-02-15T04:34:27;102418.56;;;0.05;100.00
75036;BME280;64247;51.540;5.854;2023-02-15T04:36:28;102417.72;;;0.05;100.00
75036;BME280;64247;51.540;5.854;2023-02-15T04:38:29;102419.00;;;0.02;100.00
75036;BME280;64247;51.540;5.854;2023-02-15T04:40:30;102416.47;;;-0.05;100.00
75036;BME280;64247;51.540;5.854;2023-02-15T04:42:31;102417.94;;;-0.09;100.00
75036;BME280;64247;51.540;5.854;2023-02-15T04:44:32;102412.25;;;-0.12;100.00
75036;BME280;64247;51.540;5.854;2023-02-15T04:46:32;102409.16;;;-0.09;100.00
75036;BME280;64247;51.540;5.854;2023-02-15T04:48:33;102404.59;;;-0.09;100.00
75036;BME280;64247;51.540;5.854;2023-02-15T04:50:34;102408.31;;;-0.10;100.00
75036;BME280;64247;51.540;5.854;2023-02-15T04:52:35;102404.84;;;-0.10;100.00
75036;BME280;64247;51.540;5.854;2023-02-15T04:54:36;102410.19;;;-0.10;100.00
75036;BME280;64247;51.540;5.854;2023-02-15T04:56:39;102402.63;;;-0.13;100.00
75036;BME280;64247;51.540;5.854;2023-02-15T04:58:40;102404.94;;;-0.17;100.00
75036;BME280;64247;51.540;5.854;2023-02-15T05:00:41;102406.81;;;-0.18;100.00
75036;BME280;64247;51.540;5.854;2023-02-15T05:02:42;102406.22;;;-0.20;100.00
75036;BME280;64247;51.540;5.854;2023-02-15T05:04:43;102399.00;;;-0.19;100.00
75036;BME280;64247;51.540;5.854;2023-02-15T05:06:43;102397.41;;;-0.20;100.00
75036;BME280;64247;51.540;5.854;2023-02-15T05:08:44;102401.91;;;-0.21;100.00
75036;BME280;64247;51.540;5.854;2023-02-15T05:10:48;102400.06;;;-0.20;100.00
75036;BME280;64247;51.540;5.854;2023-02-15T05:12:49;102402.75;;;-0.20;100.00
75036;BME280;64247;51.540;5.854;2023-02-15T05:14:50;102397.41;;;-0.20;100.00
75036;BME280;64247;51.540;5.854;2023-02-15T05:16:51;102394.94;;;-0.22;100.00
75036;BME280;64247;51.540;5.854;2023-02-15T05:18:52;102392.28;;;-0.22;100.00
75036;BME280;64247;51.540;5.854;2023-02-15T05:20:53;102384.06;;;-0.20;100.00
75036;BME280;64247;51.540;5.854;2023-02-15T05:22:54;102388.31;;;-0.19;100.00
75036;BME280;64247;51.540;5.854;2023-02-15T05:24:55;71600.94;;;-147.87;100.00
75036;BME280;64247;51.540;5.854;2023-02-15T05:27:14;71600.94;;;-147.87;100.00
75036;BME280;64247;51.540;5.854;2023-02-15T05:29:33;71600.94;;;-147.87;100.00
75036;BME280;64247;51.540;5.854;2023-02-15T05:31:33;71600.94;;;-147.87;100.00
75036;BME280;64247;51.540;5.854;2023-02-15T05:33:35;71600.94;;;-147.87;100.00
75036;BME280;64247;51.540;5.854;2023-02-15T05:35:35;71600.94;;;-147.87;100.00
75036;BME280;64247;51.540;5.854;2023-02-15T05:37:36;71600.94;;;-147.87;100.00
75036;BME280;64247;51.540;5.854;2023-02-15T05:39:37;71600.94;;;-147.87;100.00
75036;BME280;64247;51.540;5.854;2023-02-15T05:41:37;71600.94;;;-147.87;100.00
75036;BME280;64247;51.540;5.854;2023-02-15T05:43:38;71600.94;;;-147.87;100.00
75036;BME280;64247;51.540;5.854;2023-02-15T05:45:39;71600.94;;;-147.87;100.00
75036;BME280;64247;51.540;5.854;2023-02-15T05:47:39;71600.94;;;-147.87;100.00
75036;BME280;64247;51.540;5.854;2023-02-15T05:49:40;71600.94;;;-147.87;100.00
75036;BME280;64247;51.540;5.854;2023-02-15T05:51:41;71600.94;;;-147.87;100.00
75036;BME280;64247;51.540;5.854;2023-02-15T05:53:41;71600.94;;;-147.87;100.00
75036;BME280;64247;51.540;5.854;2023-02-15T05:55:42;71600.94;;;-147.87;100.00
75036;BME280;64247;51.540;5.854;2023-02-15T05:57:43;71600.94;;;-147.87;100.00
75036;BME280;64247;51.540;5.854;2023-02-15T05:59:43;71600.94;;;-147.87;100.00
75036;BME280;64247;51.540;5.854;2023-02-15T06:01:44;71600.94;;;-147.87;100.00
75036;BME280;64247;51.540;5.854;2023-02-15T06:03:45;71600.94;;;-147.87;100.00
75036;BME280;64247;51.540;5.854;2023-02-15T06:05:46;71600.94;;;-147.87;100.00
75036;BME280;64247;51.540;5.854;2023-02-15T06:07:47;71600.94;;;-147.87;100.00
75036;BME280;64247;51.540;5.854;2023-02-15T06:09:47;71600.94;;;-147.87;100.00
75036;BME280;64247;51.540;5.854;2023-02-15T06:11:48;71600.94;;;-147.87;100.00
75036;BME280;64247;51.540;5.854;2023-02-15T06:13:49;71600.94;;;-147.87;100.00
75036;BME280;64247;51.540;5.854;2023-02-15T06:15:49;71600.94;;;-147.87;100.00
75036;BME280;64247;51.540;5.854;2023-02-15T06:17:50;71600.94;;;-147.87;100.00
75036;BME280;64247;51.540;5.854;2023-02-15T06:19:51;71600.94;;;-147.87;100.00
75036;BME280;64247;51.540;5.854;2023-02-15T06:21:51;71600.94;;;-147.87;100.00
75036;BME280;64247;51.540;5.854;2023-02-15T06:23:52;71600.94;;;-147.87;100.00
75036;BME280;64247;51.540;5.854;2023-02-15T06:25:53;71600.94;;;-147.87;100.00
75036;BME280;64247;51.540;5.854;2023-02-15T06:27:54;71600.94;;;-147.87;100.00
75036;BME280;64247;51.540;5.854;2023-02-15T06:29:54;71600.94;;;-147.87;100.00
75036;BME280;64247;51.540;5.854;2023-02-15T06:31:55;71600.94;;;-147.87;100.00
75036;BME280;64247;51.540;5.854;2023-02-15T06:33:56;71600.94;;;-147.87;100.00
75036;BME280;64247;51.540;5.854;2023-02-15T06:36:02;71600.94;;;-147.87;100.00
75036;BME280;64247;51.540;5.854;2023-02-15T06:38:04;71600.94;;;-147.87;100.00
75036;BME280;64247;51.540;5.854;2023-02-15T06:40:04;71600.94;;;-147.87;100.00
75036;BME280;64247;51.540;5.854;2023-02-15T06:42:05;71600.94;;;-147.87;100.00
75036;BME280;64247;51.540;5.854;2023-02-15T06:44:06;71600.94;;;-147.87;100.00
75036;BME280;64247;51.540;5.854;2023-02-15T06:46:07;71600.94;;;-147.87;100.00
75036;BME280;64247;51.540;5.854;2023-02-15T06:48:07;71600.94;;;-147.87;100.00
75036;BME280;64247;51.540;5.854;2023-02-15T06:50:09;71600.94;;;-147.87;100.00
75036;BME280;64247;51.540;5.854;2023-02-15T06:52:09;71600.94;;;-147.87;100.00
75036;BME280;64247;51.540;5.854;2023-02-15T06:54:11;71600.94;;;-147.87;100.00
75036;BME280;64247;51.540;5.854;2023-02-15T06:56:12;71600.94;;;-147.87;100.00
75036;BME280;64247;51.540;5.854;2023-02-15T06:58:13;71600.94;;;-147.87;100.00
75036;BME280;64247;51.540;5.854;2023-02-15T07:00:14;71600.94;;;-147.87;100.00
75036;BME280;64247;51.540;5.854;2023-02-15T07:02:15;71600.94;;;-147.87;100.00
75036;BME280;64247;51.540;5.854;2023-02-15T07:04:16;71600.94;;;-147.87;100.00
75036;BME280;64247;51.540;5.854;2023-02-15T07:06:16;71600.94;;;-147.87;100.00
75036;BME280;64247;51.540;5.854;2023-02-15T07:08:17;71600.94;;;-147.87;100.00
75036;BME280;64247;51.540;5.854;2023-02-15T07:10:20;71600.94;;;-147.87;100.00
75036;BME280;64247;51.540;5.854;2023-02-15T07:12:21;71600.94;;;-147.87;100.00
75036;BME280;64247;51.540;5.854;2023-02-15T07:14:40;71600.94;;;-147.87;100.00
75036;BME280;64247;51.540;5.854;2023-02-15T07:16:40;71600.94;;;-147.87;100.00
75036;BME280;64247;51.540;5.854;2023-02-15T07:18:41;71600.94;;;-147.87;100.00
75036;BME280;64247;51.540;5.854;2023-02-15T07:20:42;71600.94;;;-147.87;100.00
75036;BME280;64247;51.540;5.854;2023-02-15T07:22:42;71600.94;;;-147.87;100.00
75036;BME280;64247;51.540;5.854;2023-02-15T07:24:43;71600.94;;;-147.87;100.00
75036;BME280;64247;51.540;5.854;2023-02-15T07:26:44;71600.94;;;-147.87;100.00
75036;BME280;64247;51.540;5.854;2023-02-15T07:28:44;71600.94;;;-147.87;100.00
75036;BME280;64247;51.540;5.854;2023-02-15T07:30:45;71600.94;;;-147.87;100.00
75036;BME280;64247;51.540;5.854;2023-02-15T07:32:47;71600.94;;;-147.87;100.00
75036;BME280;64247;51.540;5.854;2023-02-15T07:35:07;71600.94;;;-147.87;100.00
75036;BME280;64247;51.540;5.854;2023-02-15T07:37:07;71600.94;;;-147.87;100.00
75036;BME280;64247;51.540;5.854;2023-02-15T07:39:10;71600.94;;;-147.87;100.00
75036;BME280;64247;51.540;5.854;2023-02-15T07:41:13;71600.94;;;-147.87;100.00
75036;BME280;64247;51.540;5.854;2023-02-15T07:43:14;71600.94;;;-147.87;100.00
75036;BME280;64247;51.540;5.854;2023-02-15T07:45:15;71600.94;;;-147.87;100.00
75036;BME280;64247;51.540;5.854;2023-02-15T07:47:15;71600.94;;;-147.87;100.00
75036;BME280;64247;51.540;5.854;2023-02-15T07:49:16;71600.94;;;-147.87;100.00
75036;BME280;64247;51.540;5.854;2023-02-15T07:51:17;71600.94;;;-147.87;100.00
75036;BME280;64247;51.540;5.854;2023-02-15T07:53:17;71600.94;;;-147.87;100.00
75036;BME280;64247;51.540;5.854;2023-02-15T07:55:18;71600.94;;;-147.87;100.00
75036;BME280;64247;51.540;5.854;2023-02-15T07:57:19;71600.94;;;-147.87;100.00
75036;BME280;64247;51.540;5.854;2023-02-15T07:59:19;71600.94;;;-147.87;100.00
75036;BME280;64247;51.540;5.854;2023-02-15T08:01:26;71600.94;;;-147.87;100.00
75036;BME280;64247;51.540;5.854;2023-02-15T08:03:27;71600.94;;;-147.87;100.00
75036;BME280;64247;51.540;5.854;2023-02-15T08:05:29;71600.94;;;-147.87;100.00
75036;BME280;64247;51.540;5.854;2023-02-15T08:07:30;71600.94;;;-147.87;100.00
75036;BME280;64247;51.540;5.854;2023-02-15T08:09:30;71600.94;;;-147.87;100.00
75036;BME280;64247;51.540;5.854;2023-02-15T08:11:33;71600.94;;;-147.87;100.00
75036;BME280;64247;51.540;5.854;2023-02-15T08:13:37;71600.94;;;-147.87;100.00
75036;BME280;64247;51.540;5.854;2023-02-15T08:15:53;71600.94;;;-147.87;100.00
75036;BME280;64247;51.540;5.854;2023-02-15T08:17:54;71600.94;;;-147.87;100.00
75036;BME280;64247;51.540;5.854;2023-02-15T08:19:55;71600.94;;;-147.87;100.00
75036;BME280;64247;51.540;5.854;2023-02-15T08:22:03;71600.94;;;-147.87;100.00
75036;BME280;64247;51.540;5.854;2023-02-15T08:24:06;71600.94;;;-147.87;100.00
75036;BME280;64247;51.540;5.854;2023-02-15T08:26:07;71600.94;;;-147.87;100.00
75036;BME280;64247;51.540;5.854;2023-02-15T08:28:08;71600.94;;;-147.87;100.00
75036;BME280;64247;51.540;5.854;2023-02-15T08:30:09;71600.94;;;-147.87;100.00
75036;BME280;64247;51.540;5.854;2023-02-15T08:32:11;71600.94;;;-147.87;100.00
75036;BME280;64247;51.540;5.854;2023-02-15T08:34:18;71600.94;;;-147.87;100.00
75036;BME280;64247;51.540;5.854;2023-02-15T08:36:22;71600.94;;;-147.87;100.00
75036;BME280;64247;51.540;5.854;2023-02-15T08:38:23;71600.94;;;-147.87;100.00
75036;BME280;64247;51.540;5.854;2023-02-15T08:40:24;71600.94;;;-147.87;100.00
75036;BME280;64247;51.540;5.854;2023-02-15T08:42:24;71600.94;;;-147.87;100.00
75036;BME280;64247;51.540;5.854;2023-02-15T08:44:25;71600.94;;;-147.87;100.00
75036;BME280;64247;51.540;5.854;2023-02-15T08:46:29;71600.94;;;-147.87;100.00
75036;BME280;64247;51.540;5.854;2023-02-15T08:48:30;71600.94;;;-147.87;100.00
75036;BME280;64247;51.540;5.854;2023-02-15T08:50:31;71600.94;;;-147.87;100.00
75036;BME280;64247;51.540;5.854;2023-02-15T08:52:32;71600.94;;;-147.87;100.00
75036;BME280;64247;51.540;5.854;2023-02-15T08:54:33;71600.94;;;-147.87;100.00
75036;BME280;64247;51.540;5.854;2023-02-15T08:56:36;71600.94;;;-147.87;100.00
75036;BME280;64247;51.540;5.854;2023-02-15T08:58:38;71600.94;;;-147.87;100.00
75036;BME280;64247;51.540;5.854;2023-02-15T09:00:38;71600.94;;;-147.87;100.00
75036;BME280;64247;51.540;5.854;2023-02-15T09:02:39;71600.94;;;-147.87;100.00
75036;BME280;64247;51.540;5.854;2023-02-15T09:04:40;71600.94;;;-147.87;100.00
75036;BME280;64247;51.540;5.854;2023-02-15T09:06:41;71600.94;;;-147.87;100.00
75036;BME280;64247;51.540;5.854;2023-02-15T09:08:44;71600.94;;;-147.87;100.00
75036;BME280;64247;51.540;5.854;2023-02-15T09:10:45;71600.94;;;-147.87;100.00
75036;BME280;64247;51.540;5.854;2023-02-15T09:12:46;71600.94;;;-147.87;100.00
75036;BME280;64247;51.540;5.854;2023-02-15T09:14:46;71600.94;;;-147.87;100.00
75036;BME280;64247;51.540;5.854;2023-02-15T09:16:48;71600.94;;;-147.87;100.00
75036;BME280;64247;51.540;5.854;2023-02-15T09:18:51;71600.94;;;-147.87;100.00
75036;BME280;64247;51.540;5.854;2023-02-15T09:20:52;71600.94;;;-147.87;100.00
75036;BME280;64247;51.540;5.854;2023-02-15T09:22:53;71600.94;;;-147.87;100.00
75036;BME280;64247;51.540;5.854;2023-02-15T09:24:54;71600.94;;;-147.87;100.00
75036;BME280;64247;51.540;5.854;2023-02-15T09:26:55;71600.94;;;-147.87;100.00
75036;BME280;64247;51.540;5.854;2023-02-15T09:28:58;71600.94;;;-147.87;100.00
75036;BME280;64247;51.540;5.854;2023-02-15T09:31:27;71600.94;;;-147.87;100.00
75036;BME280;64247;51.540;5.854;2023-02-15T09:33:28;71600.94;;;-147.87;100.00
75036;BME280;64247;51.540;5.854;2023-02-15T09:35:29;71600.94;;;-147.87;100.00
75036;BME280;64247;51.540;5.854;2023-02-15T09:37:30;71600.94;;;-147.87;100.00
75036;BME280;64247;51.540;5.854;2023-02-15T09:39:32;71600.94;;;-147.87;100.00
75036;BME280;64247;51.540;5.854;2023-02-15T09:57:20;71600.94;;;-147.87;100.00
75036;BME280;64247;51.540;5.854;2023-02-15T10:13:07;71600.94;;;-147.87;100.00
